sensor_id;sensor_type;location;lat;lon;timestamp;P1;durP1;ratioP1;P2;durP2;ratioP2
51244;SDS011;37840;47.562;18.738;2023-05-07T00:02:07;5.22;;;4.72;;
51244;SDS011;37840;47.562;18.738;2023-05-07T00:04:33;6.97;;;5.07;;
51244;SDS011;37840;47.562;18.738;2023-05-07T00:07:03;5.90;;;5.03;;
51244;SDS011;37840;47.562;18.738;2023-05-07T00:09:29;6.12;;;5.18;;
51244;SDS011;37840;47.562;18.738;2023-05-07T00:11:55;5.28;;;4.78;;
51244;SDS011;37840;47.562;18.738;2023-05-07T00:14:21;5.53;;;5.00;;
51244;SDS011;37840;47.562;18.738;2023-05-07T00:16:47;6.22;;;5.57;;
51244;SDS011;37840;47.562;18.738;2023-05-07T00:19:12;6.45;;;5.22;;
51244;SDS011;37840;47.562;18.738;2023-05-07T00:21:38;5.85;;;5.25;;
51244;SDS011;37840;47.562;18.738;2023-05-07T00:24:04;6.60;;;5.97;;
51244;SDS011;37840;47.562;18.738;2023-05-07T00:26:30;7.03;;;6.32;;
51244;SDS011;37840;47.562;18.738;2023-05-07T00:28:56;7.10;;;6.40;;
51244;SDS011;37840;47.562;18.738;2023-05-07T00:31:22;8.23;;;7.07;;
51244;SDS011;37840;47.562;18.738;2023-05-07T00:33:48;7.40;;;6.70;;
51244;SDS011;37840;47.562;18.738;2023-05-07T00:36:14;7.07;;;6.10;;
51244;SDS011;37840;47.562;18.738;2023-05-07T00:38:40;8.15;;;5.75;;
51244;SDS011;37840;47.562;18.738;2023-05-07T00:41:06;6.95;;;6.22;;
51244;SDS011;37840;47.562;18.738;2023-05-07T00:43:32;6.25;;;5.65;;
51244;SDS011;37840;47.562;18.738;2023-05-07T00:45:58;6.50;;;5.90;;
51244;SDS011;37840;47.562;18.738;2023-05-07T00:48:24;7.05;;;6.18;;
51244;SDS011;37840;47.562;18.738;2023-05-07T00:50:51;8.57;;;6.10;;
51244;SDS011;37840;47.562;18.738;2023-05-07T00:53:17;7.53;;;6.72;;
51244;SDS011;37840;47.562;18.738;2023-05-07T00:55:43;7.32;;;6.15;;
51244;SDS011;37840;47.562;18.738;2023-05-07T00:58:09;6.20;;;5.60;;
51244;SDS011;37840;47.562;18.738;2023-05-07T01:00:35;7.95;;;6.18;;
51244;SDS011;37840;47.562;18.738;2023-05-07T01:03:01;6.65;;;5.85;;
51244;SDS011;37840;47.562;18.738;2023-05-07T01:05:28;7.93;;;7.12;;
51244;SDS011;37840;47.562;18.738;2023-05-07T01:07:56;11.85;;;8.85;;
51244;SDS011;37840;47.562;18.738;2023-05-07T01:10:23;11.07;;;7.85;;
51244;SDS011;37840;47.562;18.738;2023-05-07T01:12:50;7.78;;;6.97;;
51244;SDS011;37840;47.562;18.738;2023-05-07T01:15:16;6.90;;;6.20;;
51244;SDS011;37840;47.562;18.738;2023-05-07T01:17:43;7.50;;;6.28;;
51244;SDS011;37840;47.562;18.738;2023-05-07T01:20:09;7.60;;;6.03;;
51244;SDS011;37840;47.562;18.738;2023-05-07T01:22:36;6.45;;;5.72;;
51244;SDS011;37840;47.562;18.738;2023-05-07T01:25:06;7.78;;;6.60;;
51244;SDS011;37840;47.562;18.738;2023-05-07T01:27:33;8.27;;;5.93;;
51244;SDS011;37840;47.562;18.738;2023-05-07T01:30:01;5.57;;;5.07;;
51244;SDS011;37840;47.562;18.738;2023-05-07T01:35:09;6.35;;;5.65;;
51244;SDS011;37840;47.562;18.738;2023-05-07T01:37:38;6.12;;;5.35;;
51244;SDS011;37840;47.562;18.738;2023-05-07T01:40:06;6.70;;;5.97;;
51244;SDS011;37840;47.562;18.738;2023-05-07T01:42:33;7.80;;;7.00;;
51244;SDS011;37840;47.562;18.738;2023-05-07T01:44:59;7.15;;;5.90;;
51244;SDS011;37840;47.562;18.738;2023-05-07T01:47:25;8.32;;;6.00;;
51244;SDS011;37840;47.562;18.738;2023-05-07T01:49:52;7.68;;;6.25;;
51244;SDS011;37840;47.562;18.738;2023-05-07T01:52:18;9.57;;;6.82;;
51244;SDS011;37840;47.562;18.738;2023-05-07T01:54:44;9.88;;;7.07;;
51244;SDS011;37840;47.562;18.738;2023-05-07T01:57:10;12.98;;;10.20;;
51244;SDS011;37840;47.562;18.738;2023-05-07T01:59:36;10.18;;;8.32;;
51244;SDS011;37840;47.562;18.738;2023-05-07T02:02:02;9.38;;;7.97;;
51244;SDS011;37840;47.562;18.738;2023-05-07T02:04:28;11.82;;;7.10;;
51244;SDS011;37840;47.562;18.738;2023-05-07T02:06:54;8.70;;;7.15;;
51244;SDS011;37840;47.562;18.738;2023-05-07T02:09:21;9.02;;;7.60;;
51244;SDS011;37840;47.562;18.738;2023-05-07T02:11:48;7.40;;;6.60;;
51244;SDS011;37840;47.562;18.738;2023-05-07T02:14:14;7.80;;;7.00;;
51244;SDS011;37840;47.562;18.738;2023-05-07T02:16:41;6.72;;;5.93;;
51244;SDS011;37840;47.562;18.738;2023-05-07T02:19:07;7.55;;;6.18;;
51244;SDS011;37840;47.562;18.738;2023-05-07T02:21:33;7.40;;;6.45;;
51244;SDS011;37840;47.562;18.738;2023-05-07T02:23:59;6.90;;;6.20;;
51244;SDS011;37840;47.562;18.738;2023-05-07T02:26:25;7.62;;;6.80;;
51244;SDS011;37840;47.562;18.738;2023-05-07T02:28:51;7.05;;;6.35;;
51244;SDS011;37840;47.562;18.738;2023-05-07T02:31:17;6.50;;;5.90;;
51244;SDS011;37840;47.562;18.738;2023-05-07T02:33:43;7.85;;;5.60;;
51244;SDS011;37840;47.562;18.738;2023-05-07T02:36:11;6.35;;;5.75;;
51244;SDS011;37840;47.562;18.738;2023-05-07T02:38:38;7.18;;;4.93;;
51244;SDS011;37840;47.562;18.738;2023-05-07T02:41:04;5.82;;;5.28;;
51244;SDS011;37840;47.562;18.738;2023-05-07T02:43:30;5.82;;;5.22;;
51244;SDS011;37840;47.562;18.738;2023-05-07T02:48:32;7.60;;;5.45;;
51244;SDS011;37840;47.562;18.738;2023-05-07T02:50:58;6.65;;;5.95;;
51244;SDS011;37840;47.562;18.738;2023-05-07T02:53:25;6.55;;;5.72;;
51244;SDS011;37840;47.562;18.738;2023-05-07T02:55:52;7.60;;;5.57;;
51244;SDS011;37840;47.562;18.738;2023-05-07T02:58:19;6.25;;;5.50;;
51244;SDS011;37840;47.562;18.738;2023-05-07T03:00:45;5.90;;;5.25;;
51244;SDS011;37840;47.562;18.738;2023-05-07T03:03:11;6.47;;;4.80;;
51244;SDS011;37840;47.562;18.738;2023-05-07T03:05:37;5.95;;;4.70;;
51244;SDS011;37840;47.562;18.738;2023-05-07T03:08:03;6.50;;;4.43;;
51244;SDS011;37840;47.562;18.738;2023-05-07T03:10:29;5.45;;;4.80;;
51244;SDS011;37840;47.562;18.738;2023-05-07T03:12:56;5.95;;;5.25;;
51244;SDS011;37840;47.562;18.738;2023-05-07T03:15:22;5.72;;;5.07;;
51244;SDS011;37840;47.562;18.738;2023-05-07T03:17:48;5.25;;;4.62;;
51244;SDS011;37840;47.562;18.738;2023-05-07T03:20:14;5.00;;;4.47;;
51244;SDS011;37840;47.562;18.738;2023-05-07T03:22:40;6.07;;;5.47;;
51244;SDS011;37840;47.562;18.738;2023-05-07T03:25:06;6.50;;;5.90;;
51244;SDS011;37840;47.562;18.738;2023-05-07T03:27:33;6.35;;;5.70;;
51244;SDS011;37840;47.562;18.738;2023-05-07T03:29:59;6.45;;;5.53;;
51244;SDS011;37840;47.562;18.738;2023-05-07T03:32:25;6.22;;;5.55;;
51244;SDS011;37840;47.562;18.738;2023-05-07T03:34:51;6.35;;;5.70;;
51244;SDS011;37840;47.562;18.738;2023-05-07T03:37:17;6.75;;;5.97;;
51244;SDS011;37840;47.562;18.738;2023-05-07T03:39:44;6.85;;;6.15;;
51244;SDS011;37840;47.562;18.738;2023-05-07T03:42:10;6.62;;;5.93;;
51244;SDS011;37840;47.562;18.738;2023-05-07T03:44:36;6.70;;;6.00;;
51244;SDS011;37840;47.562;18.738;2023-05-07T03:47:02;6.82;;;6.12;;
51244;SDS011;37840;47.562;18.738;2023-05-07T03:49:28;6.97;;;5.57;;
51244;SDS011;37840;47.562;18.738;2023-05-07T03:51:54;7.07;;;6.15;;
51244;SDS011;37840;47.562;18.738;2023-05-07T03:54:21;6.70;;;6.00;;
51244;SDS011;37840;47.562;18.738;2023-05-07T03:56:46;7.10;;;6.30;;
51244;SDS011;37840;47.562;18.738;2023-05-07T03:59:13;6.95;;;5.90;;
51244;SDS011;37840;47.562;18.738;2023-05-07T04:01:39;8.80;;;6.62;;
51244;SDS011;37840;47.562;18.738;2023-05-07T04:04:05;6.75;;;5.93;;
51244;SDS011;37840;47.562;18.738;2023-05-07T04:06:31;7.22;;;6.45;;
51244;SDS011;37840;47.562;18.738;2023-05-07T04:08:57;7.25;;;6.55;;
51244;SDS011;37840;47.562;18.738;2023-05-07T04:11:23;6.25;;;5.65;;
51244;SDS011;37840;47.562;18.738;2023-05-07T04:13:50;7.00;;;6.25;;
51244;SDS011;37840;47.562;18.738;2023-05-07T04:16:16;7.12;;;6.12;;
51244;SDS011;37840;47.562;18.738;2023-05-07T04:18:42;7.90;;;6.53;;
51244;SDS011;37840;47.562;18.738;2023-05-07T04:21:14;8.02;;;6.97;;
51244;SDS011;37840;47.562;18.738;2023-05-07T04:23:41;8.07;;;6.85;;
51244;SDS011;37840;47.562;18.738;2023-05-07T04:26:07;7.25;;;6.55;;
51244;SDS011;37840;47.562;18.738;2023-05-07T04:28:33;6.95;;;5.95;;
51244;SDS011;37840;47.562;18.738;2023-05-07T04:30:59;8.20;;;6.25;;
51244;SDS011;37840;47.562;18.738;2023-05-07T04:33:26;7.12;;;6.43;;
51244;SDS011;37840;47.562;18.738;2023-05-07T04:35:52;6.78;;;5.75;;
51244;SDS011;37840;47.562;18.738;2023-05-07T04:38:17;6.65;;;5.95;;
51244;SDS011;37840;47.562;18.738;2023-05-07T04:40:44;7.70;;;6.40;;
51244;SDS011;37840;47.562;18.738;2023-05-07T04:43:10;7.53;;;6.65;;
51244;SDS011;37840;47.562;18.738;2023-05-07T04:45:36;8.50;;;6.50;;
51244;SDS011;37840;47.562;18.738;2023-05-07T04:48:02;6.93;;;6.32;;
51244;SDS011;37840;47.562;18.738;2023-05-07T04:50:28;8.20;;;6.62;;
51244;SDS011;37840;47.562;18.738;2023-05-07T04:52:54;7.00;;;6.15;;
51244;SDS011;37840;47.562;18.738;2023-05-07T04:55:20;7.60;;;6.72;;
51244;SDS011;37840;47.562;18.738;2023-05-07T04:57:46;7.65;;;6.53;;
51244;SDS011;37840;47.562;18.738;2023-05-07T05:00:12;7.12;;;6.12;;
51244;SDS011;37840;47.562;18.738;2023-05-07T05:02:40;8.60;;;7.37;;
51244;SDS011;37840;47.562;18.738;2023-05-07T05:05:06;9.00;;;7.60;;
51244;SDS011;37840;47.562;18.738;2023-05-07T05:07:33;10.23;;;8.00;;
51244;SDS011;37840;47.562;18.738;2023-05-07T05:09:59;9.32;;;8.13;;
51244;SDS011;37840;47.562;18.738;2023-05-07T05:12:25;9.40;;;8.38;;
51244;SDS011;37840;47.562;18.738;2023-05-07T05:14:50;8.48;;;7.50;;
51244;SDS011;37840;47.562;18.738;2023-05-07T05:17:17;8.68;;;7.60;;
51244;SDS011;37840;47.562;18.738;2023-05-07T05:19:43;7.90;;;7.10;;
51244;SDS011;37840;47.562;18.738;2023-05-07T05:22:09;6.70;;;6.10;;
51244;SDS011;37840;47.562;18.738;2023-05-07T05:24:35;7.57;;;6.62;;
51244;SDS011;37840;47.562;18.738;2023-05-07T05:27:01;7.57;;;6.72;;
51244;SDS011;37840;47.562;18.738;2023-05-07T05:29:27;7.97;;;7.18;;
51244;SDS011;37840;47.562;18.738;2023-05-07T05:31:53;7.82;;;6.70;;
51244;SDS011;37840;47.562;18.738;2023-05-07T05:34:19;8.40;;;7.43;;
51244;SDS011;37840;47.562;18.738;2023-05-07T05:36:45;7.40;;;6.53;;
51244;SDS011;37840;47.562;18.738;2023-05-07T05:39:11;6.82;;;6.15;;
51244;SDS011;37840;47.562;18.738;2023-05-07T05:41:38;6.00;;;5.40;;
51244;SDS011;37840;47.562;18.738;2023-05-07T05:44:04;5.80;;;5.20;;
51244;SDS011;37840;47.562;18.738;2023-05-07T05:46:30;6.03;;;5.43;;
51244;SDS011;37840;47.562;18.738;2023-05-07T05:48:56;6.55;;;5.85;;
51244;SDS011;37840;47.562;18.738;2023-05-07T05:51:24;6.18;;;5.57;;
51244;SDS011;37840;47.562;18.738;2023-05-07T05:53:50;6.78;;;6.07;;
51244;SDS011;37840;47.562;18.738;2023-05-07T05:56:16;7.03;;;5.72;;
51244;SDS011;37840;47.562;18.738;2023-05-07T05:58:42;6.90;;;5.82;;
51244;SDS011;37840;47.562;18.738;2023-05-07T06:01:08;6.05;;;5.43;;
51244;SDS011;37840;47.562;18.738;2023-05-07T06:03:34;5.65;;;5.12;;
51244;SDS011;37840;47.562;18.738;2023-05-07T06:06:00;6.18;;;5.57;;
51244;SDS011;37840;47.562;18.738;2023-05-07T06:08:28;6.30;;;5.22;;
51244;SDS011;37840;47.562;18.738;2023-05-07T06:10:55;7.25;;;5.18;;
51244;SDS011;37840;47.562;18.738;2023-05-07T06:13:22;6.45;;;5.60;;
51244;SDS011;37840;47.562;18.738;2023-05-07T06:15:48;6.25;;;4.80;;
51244;SDS011;37840;47.562;18.738;2023-05-07T06:18:15;6.40;;;5.72;;
51244;SDS011;37840;47.562;18.738;2023-05-07T06:20:41;6.50;;;5.15;;
51244;SDS011;37840;47.562;18.738;2023-05-07T06:23:07;4.40;;;3.95;;
51244;SDS011;37840;47.562;18.738;2023-05-07T06:25:32;4.32;;;3.65;;
51244;SDS011;37840;47.562;18.738;2023-05-07T06:27:58;5.72;;;4.10;;
51244;SDS011;37840;47.562;18.738;2023-05-07T06:30:24;4.62;;;3.83;;
51244;SDS011;37840;47.562;18.738;2023-05-07T06:32:50;5.12;;;4.03;;
51244;SDS011;37840;47.562;18.738;2023-05-07T06:35:16;4.85;;;4.35;;
51244;SDS011;37840;47.562;18.738;2023-05-07T06:37:42;6.05;;;4.35;;
51244;SDS011;37840;47.562;18.738;2023-05-07T06:40:08;4.70;;;4.30;;
51244;SDS011;37840;47.562;18.738;2023-05-07T06:42:35;5.30;;;4.80;;
51244;SDS011;37840;47.562;18.738;2023-05-07T06:45:02;4.65;;;4.03;;
51244;SDS011;37840;47.562;18.738;2023-05-07T06:47:28;4.15;;;3.75;;
51244;SDS011;37840;47.562;18.738;2023-05-07T06:49:54;4.22;;;3.83;;
51244;SDS011;37840;47.562;18.738;2023-05-07T06:52:20;5.05;;;4.43;;
51244;SDS011;37840;47.562;18.738;2023-05-07T06:54:46;5.68;;;4.50;;
51244;SDS011;37840;47.562;18.738;2023-05-07T06:57:11;5.70;;;4.80;;
51244;SDS011;37840;47.562;18.738;2023-05-07T06:59:37;5.75;;;5.25;;
51244;SDS011;37840;47.562;18.738;2023-05-07T07:02:03;5.93;;;5.37;;
51244;SDS011;37840;47.562;18.738;2023-05-07T07:04:29;7.90;;;6.22;;
51244;SDS011;37840;47.562;18.738;2023-05-07T07:06:55;6.32;;;5.72;;
51244;SDS011;37840;47.562;18.738;2023-05-07T07:09:22;6.65;;;6.05;;
51244;SDS011;37840;47.562;18.738;2023-05-07T07:11:48;6.53;;;5.90;;
51244;SDS011;37840;47.562;18.738;2023-05-07T07:14:14;8.55;;;6.20;;
51244;SDS011;37840;47.562;18.738;2023-05-07T07:16:40;8.35;;;6.75;;
51244;SDS011;37840;47.562;18.738;2023-05-07T07:19:06;7.50;;;6.50;;
51244;SDS011;37840;47.562;18.738;2023-05-07T07:21:32;8.30;;;6.90;;
51244;SDS011;37840;47.562;18.738;2023-05-07T07:23:58;9.02;;;7.45;;
51244;SDS011;37840;47.562;18.738;2023-05-07T07:26:24;8.77;;;7.20;;
51244;SDS011;37840;47.562;18.738;2023-05-07T07:28:50;7.62;;;6.78;;
51244;SDS011;37840;47.562;18.738;2023-05-07T07:31:16;7.72;;;6.90;;
51244;SDS011;37840;47.562;18.738;2023-05-07T07:33:42;7.93;;;6.28;;
51244;SDS011;37840;47.562;18.738;2023-05-07T07:36:08;6.95;;;5.97;;
51244;SDS011;37840;47.562;18.738;2023-05-07T07:38:34;8.50;;;6.68;;
51244;SDS011;37840;47.562;18.738;2023-05-07T07:41:00;8.50;;;6.93;;
51244;SDS011;37840;47.562;18.738;2023-05-07T07:43:26;7.78;;;6.87;;
51244;SDS011;37840;47.562;18.738;2023-05-07T07:45:53;7.50;;;6.80;;
51244;SDS011;37840;47.562;18.738;2023-05-07T07:48:19;8.32;;;6.90;;
51244;SDS011;37840;47.562;18.738;2023-05-07T07:50:45;8.20;;;7.05;;
51244;SDS011;37840;47.562;18.738;2023-05-07T07:53:14;7.28;;;6.57;;
51244;SDS011;37840;47.562;18.738;2023-05-07T07:55:40;7.87;;;6.85;;
51244;SDS011;37840;47.562;18.738;2023-05-07T07:58:06;8.48;;;6.78;;
51244;SDS011;37840;47.562;18.738;2023-05-07T08:00:32;6.93;;;6.25;;
51244;SDS011;37840;47.562;18.738;2023-05-07T08:02:58;7.50;;;6.15;;
51244;SDS011;37840;47.562;18.738;2023-05-07T08:05:24;6.80;;;6.10;;
51244;SDS011;37840;47.562;18.738;2023-05-07T08:07:50;6.78;;;6.18;;
51244;SDS011;37840;47.562;18.738;2023-05-07T08:10:18;7.70;;;6.30;;
51244;SDS011;37840;47.562;18.738;2023-05-07T08:12:49;7.20;;;6.25;;
51244;SDS011;37840;47.562;18.738;2023-05-07T08:15:16;7.47;;;6.78;;
51244;SDS011;37840;47.562;18.738;2023-05-07T08:17:42;6.95;;;5.82;;
51244;SDS011;37840;47.562;18.738;2023-05-07T08:20:08;7.43;;;5.72;;
51244;SDS011;37840;47.562;18.738;2023-05-07T08:22:35;5.60;;;5.10;;
51244;SDS011;37840;47.562;18.738;2023-05-07T08:25:02;6.00;;;5.37;;
51244;SDS011;37840;47.562;18.738;2023-05-07T08:27:28;5.47;;;4.75;;
51244;SDS011;37840;47.562;18.738;2023-05-07T08:29:54;6.07;;;4.53;;
51244;SDS011;37840;47.562;18.738;2023-05-07T08:32:20;5.03;;;3.67;;
51244;SDS011;37840;47.562;18.738;2023-05-07T08:34:47;4.47;;;4.00;;
51244;SDS011;37840;47.562;18.738;2023-05-07T08:37:13;4.70;;;4.30;;
51244;SDS011;37840;47.562;18.738;2023-05-07T08:39:39;7.12;;;4.97;;
51244;SDS011;37840;47.562;18.738;2023-05-07T08:42:05;6.15;;;5.55;;
51244;SDS011;37840;47.562;18.738;2023-05-07T08:44:33;5.82;;;5.22;;
51244;SDS011;37840;47.562;18.738;2023-05-07T08:47:00;6.78;;;6.07;;
51244;SDS011;37840;47.562;18.738;2023-05-07T08:49:27;6.45;;;5.75;;
51244;SDS011;37840;47.562;18.738;2023-05-07T08:51:54;7.43;;;6.72;;
51244;SDS011;37840;47.562;18.738;2023-05-07T08:54:21;7.25;;;6.55;;
51244;SDS011;37840;47.562;18.738;2023-05-07T08:56:47;7.70;;;6.95;;
51244;SDS011;37840;47.562;18.738;2023-05-07T08:59:13;7.87;;;5.87;;
51244;SDS011;37840;47.562;18.738;2023-05-07T09:01:39;7.57;;;6.87;;
51244;SDS011;37840;47.562;18.738;2023-05-07T09:04:05;7.75;;;6.95;;
51244;SDS011;37840;47.562;18.738;2023-05-07T09:06:32;7.75;;;6.30;;
51244;SDS011;37840;47.562;18.738;2023-05-07T09:08:59;7.37;;;6.68;;
51244;SDS011;37840;47.562;18.738;2023-05-07T09:11:30;6.40;;;5.78;;
51244;SDS011;37840;47.562;18.738;2023-05-07T09:13:57;6.95;;;6.22;;
51244;SDS011;37840;47.562;18.738;2023-05-07T09:16:25;5.95;;;5.35;;
51244;SDS011;37840;47.562;18.738;2023-05-07T09:18:52;5.72;;;5.12;;
51244;SDS011;37840;47.562;18.738;2023-05-07T09:21:20;6.60;;;5.47;;
51244;SDS011;37840;47.562;18.738;2023-05-07T09:23:53;5.43;;;4.25;;
51244;SDS011;37840;47.562;18.738;2023-05-07T09:26:23;8.18;;;4.43;;
51244;SDS011;37840;47.562;18.738;2023-05-07T09:28:50;4.80;;;4.30;;
51244;SDS011;37840;47.562;18.738;2023-05-07T09:31:17;5.28;;;4.78;;
51244;SDS011;37840;47.562;18.738;2023-05-07T09:33:43;6.07;;;4.97;;
51244;SDS011;37840;47.562;18.738;2023-05-07T09:36:10;5.75;;;4.70;;
51244;SDS011;37840;47.562;18.738;2023-05-07T09:38:36;6.72;;;5.82;;
51244;SDS011;37840;47.562;18.738;2023-05-07T09:41:10;7.10;;;6.43;;
51244;SDS011;37840;47.562;18.738;2023-05-07T09:43:38;7.32;;;6.40;;
51244;SDS011;37840;47.562;18.738;2023-05-07T09:48:37;6.15;;;5.07;;
51244;SDS011;37840;47.562;18.738;2023-05-07T09:51:21;6.90;;;6.25;;
51244;SDS011;37840;47.562;18.738;2023-05-07T09:53:47;6.97;;;5.43;;
51244;SDS011;37840;47.562;18.738;2023-05-07T09:56:14;5.37;;;4.80;;
51244;SDS011;37840;47.562;18.738;2023-05-07T09:58:45;4.80;;;4.30;;
51244;SDS011;37840;47.562;18.738;2023-05-07T10:01:12;3.75;;;3.30;;
51244;SDS011;37840;47.562;18.738;2023-05-07T10:03:39;3.50;;;3.20;;
51244;SDS011;37840;47.562;18.738;2023-05-07T10:06:10;3.15;;;2.85;;
51244;SDS011;37840;47.562;18.738;2023-05-07T10:08:38;4.22;;;3.10;;
51244;SDS011;37840;47.562;18.738;2023-05-07T10:11:05;3.22;;;2.85;;
51244;SDS011;37840;47.562;18.738;2023-05-07T10:13:32;2.45;;;2.25;;
51244;SDS011;37840;47.562;18.738;2023-05-07T10:16:01;2.50;;;2.30;;
51244;SDS011;37840;47.562;18.738;2023-05-07T10:18:30;2.97;;;2.50;;
51244;SDS011;37840;47.562;18.738;2023-05-07T10:21:06;2.92;;;2.03;;
51244;SDS011;37840;47.562;18.738;2023-05-07T10:23:34;2.95;;;2.28;;
51244;SDS011;37840;47.562;18.738;2023-05-07T10:26:02;2.70;;;2.50;;
51244;SDS011;37840;47.562;18.738;2023-05-07T10:28:31;3.83;;;2.40;;
51244;SDS011;37840;47.562;18.738;2023-05-07T10:33:40;3.45;;;2.42;;
51244;SDS011;37840;47.562;18.738;2023-05-07T10:36:08;2.53;;;2.33;;
51244;SDS011;37840;47.562;18.738;2023-05-07T10:38:34;3.87;;;2.20;;
51244;SDS011;37840;47.562;18.738;2023-05-07T10:41:00;2.85;;;2.30;;
51244;SDS011;37840;47.562;18.738;2023-05-07T10:43:37;3.05;;;2.17;;
51244;SDS011;37840;47.562;18.738;2023-05-07T10:46:15;2.50;;;2.30;;
51244;SDS011;37840;47.562;18.738;2023-05-07T10:51:27;3.00;;;2.20;;
51244;SDS011;37840;47.562;18.738;2023-05-07T10:56:45;2.60;;;2.40;;
51244;SDS011;37840;47.562;18.738;2023-05-07T11:02:00;2.90;;;2.60;;
51244;SDS011;37840;47.562;18.738;2023-05-07T11:04:31;3.10;;;2.70;;
51244;SDS011;37840;47.562;18.738;2023-05-07T11:10:15;3.87;;;2.80;;
51244;SDS011;37840;47.562;18.738;2023-05-07T11:15:08;3.00;;;2.40;;
51244;SDS011;37840;47.562;18.738;2023-05-07T11:17:54;4.05;;;3.20;;
51244;SDS011;37840;47.562;18.738;2023-05-07T11:20:36;2.85;;;2.40;;
51244;SDS011;37840;47.562;18.738;2023-05-07T11:26:04;3.45;;;3.03;;
51244;SDS011;37840;47.562;18.738;2023-05-07T11:28:30;4.00;;;3.22;;
51244;SDS011;37840;47.562;18.738;2023-05-07T11:31:01;4.20;;;3.80;;
51244;SDS011;37840;47.562;18.738;2023-05-07T11:33:28;3.50;;;2.80;;
51244;SDS011;37840;47.562;18.738;2023-05-07T11:35:55;4.45;;;2.72;;
51244;SDS011;37840;47.562;18.738;2023-05-07T11:38:21;3.40;;;2.60;;
51244;SDS011;37840;47.562;18.738;2023-05-07T11:40:48;4.20;;;2.78;;
51244;SDS011;37840;47.562;18.738;2023-05-07T11:43:18;3.03;;;2.58;;
51244;SDS011;37840;47.562;18.738;2023-05-07T11:45:45;3.55;;;3.25;;
51244;SDS011;37840;47.562;18.738;2023-05-07T11:48:12;3.67;;;3.30;;
51244;SDS011;37840;47.562;18.738;2023-05-07T11:50:59;3.42;;;3.12;;
51244;SDS011;37840;47.562;18.738;2023-05-07T11:53:28;3.90;;;2.92;;
51244;SDS011;37840;47.562;18.738;2023-05-07T11:56:05;3.53;;;3.10;;
51244;SDS011;37840;47.562;18.738;2023-05-07T11:58:35;2.72;;;2.45;;
51244;SDS011;37840;47.562;18.738;2023-05-07T12:01:01;3.08;;;2.40;;
51244;SDS011;37840;47.562;18.738;2023-05-07T12:03:28;2.92;;;2.62;;
51244;SDS011;37840;47.562;18.738;2023-05-07T12:05:54;3.75;;;3.35;;
51244;SDS011;37840;47.562;18.738;2023-05-07T12:08:20;5.78;;;3.05;;
51244;SDS011;37840;47.562;18.738;2023-05-07T12:10:48;2.62;;;2.40;;
51244;SDS011;37840;47.562;18.738;2023-05-07T12:13:19;2.92;;;2.50;;
51244;SDS011;37840;47.562;18.738;2023-05-07T12:15:45;3.00;;;2.80;;
51244;SDS011;37840;47.562;18.738;2023-05-07T12:18:12;3.35;;;2.70;;
51244;SDS011;37840;47.562;18.738;2023-05-07T12:20:39;3.42;;;3.00;;
51244;SDS011;37840;47.562;18.738;2023-05-07T12:23:05;4.87;;;2.85;;
51244;SDS011;37840;47.562;18.738;2023-05-07T12:25:31;5.60;;;3.30;;
51244;SDS011;37840;47.562;18.738;2023-05-07T12:28:00;3.53;;;3.10;;
51244;SDS011;37840;47.562;18.738;2023-05-07T12:30:27;2.60;;;2.30;;
51244;SDS011;37840;47.562;18.738;2023-05-07T12:32:53;3.33;;;3.03;;
51244;SDS011;37840;47.562;18.738;2023-05-07T12:35:53;2.90;;;2.50;;
51244;SDS011;37840;47.562;18.738;2023-05-07T12:38:13;3.17;;;2.85;;
51244;SDS011;37840;47.562;18.738;2023-05-07T12:40:45;4.30;;;3.35;;
51244;SDS011;37840;47.562;18.738;2023-05-07T12:46:11;3.85;;;2.58;;
51244;SDS011;37840;47.562;18.738;2023-05-07T12:48:45;3.85;;;2.55;;
51244;SDS011;37840;47.562;18.738;2023-05-07T12:51:12;6.43;;;2.55;;
51244;SDS011;37840;47.562;18.738;2023-05-07T12:53:39;4.35;;;3.00;;
51244;SDS011;37840;47.562;18.738;2023-05-07T12:56:07;4.05;;;3.28;;
51244;SDS011;37840;47.562;18.738;2023-05-07T12:58:35;3.67;;;3.30;;
51244;SDS011;37840;47.562;18.738;2023-05-07T13:01:05;3.33;;;2.95;;
51244;SDS011;37840;47.562;18.738;2023-05-07T13:03:33;2.95;;;2.65;;
51244;SDS011;37840;47.562;18.738;2023-05-07T13:06:01;3.12;;;2.83;;
51244;SDS011;37840;47.562;18.738;2023-05-07T13:08:30;3.85;;;2.75;;
51244;SDS011;37840;47.562;18.738;2023-05-07T13:10:57;2.97;;;2.58;;
51244;SDS011;37840;47.562;18.738;2023-05-07T13:13:25;3.62;;;2.87;;
51244;SDS011;37840;47.562;18.738;2023-05-07T13:15:51;3.10;;;2.40;;
51244;SDS011;37840;47.562;18.738;2023-05-07T13:18:17;3.20;;;2.90;;
51244;SDS011;37840;47.562;18.738;2023-05-07T13:20:43;2.87;;;2.58;;
51244;SDS011;37840;47.562;18.738;2023-05-07T13:23:09;3.20;;;2.75;;
51244;SDS011;37840;47.562;18.738;2023-05-07T13:25:35;4.25;;;2.65;;
51244;SDS011;37840;47.562;18.738;2023-05-07T13:28:01;3.97;;;2.90;;
51244;SDS011;37840;47.562;18.738;2023-05-07T13:30:28;4.62;;;2.83;;
51244;SDS011;37840;47.562;18.738;2023-05-07T13:32:55;2.90;;;2.50;;
51244;SDS011;37840;47.562;18.738;2023-05-07T13:35:21;2.95;;;2.70;;
51244;SDS011;37840;47.562;18.738;2023-05-07T13:37:47;3.80;;;2.90;;
51244;SDS011;37840;47.562;18.738;2023-05-07T13:40:14;5.25;;;2.87;;
51244;SDS011;37840;47.562;18.738;2023-05-07T13:42:40;3.50;;;3.20;;
51244;SDS011;37840;47.562;18.738;2023-05-07T13:45:07;4.65;;;3.42;;
51244;SDS011;37840;47.562;18.738;2023-05-07T13:47:34;3.70;;;3.33;;
51244;SDS011;37840;47.562;18.738;2023-05-07T13:50:00;3.50;;;2.65;;
51244;SDS011;37840;47.562;18.738;2023-05-07T13:52:26;4.85;;;3.37;;
51244;SDS011;37840;47.562;18.738;2023-05-07T13:54:51;3.55;;;2.85;;
51244;SDS011;37840;47.562;18.738;2023-05-07T13:57:21;4.15;;;3.37;;
51244;SDS011;37840;47.562;18.738;2023-05-07T13:59:47;3.83;;;3.45;;
51244;SDS011;37840;47.562;18.738;2023-05-07T14:02:13;4.37;;;3.45;;
51244;SDS011;37840;47.562;18.738;2023-05-07T14:04:39;3.50;;;3.20;;
51244;SDS011;37840;47.562;18.738;2023-05-07T14:07:05;4.20;;;3.60;;
51244;SDS011;37840;47.562;18.738;2023-05-07T14:09:31;4.53;;;3.35;;
51244;SDS011;37840;47.562;18.738;2023-05-07T14:11:58;4.50;;;3.35;;
51244;SDS011;37840;47.562;18.738;2023-05-07T14:14:24;3.80;;;3.03;;
51244;SDS011;37840;47.562;18.738;2023-05-07T14:16:50;4.10;;;3.30;;
51244;SDS011;37840;47.562;18.738;2023-05-07T14:19:16;4.85;;;4.20;;
51244;SDS011;37840;47.562;18.738;2023-05-07T14:21:42;5.55;;;4.45;;
51244;SDS011;37840;47.562;18.738;2023-05-07T14:24:08;5.00;;;4.47;;
51244;SDS011;37840;47.562;18.738;2023-05-07T14:26:34;6.50;;;5.25;;
51244;SDS011;37840;47.562;18.738;2023-05-07T14:29:00;6.07;;;4.90;;
51244;SDS011;37840;47.562;18.738;2023-05-07T14:31:26;5.30;;;4.55;;
51244;SDS011;37840;47.562;18.738;2023-05-07T14:33:52;5.10;;;4.03;;
51244;SDS011;37840;47.562;18.738;2023-05-07T14:36:19;4.20;;;3.45;;
51244;SDS011;37840;47.562;18.738;2023-05-07T14:38:52;3.47;;;3.10;;
51244;SDS011;37840;47.562;18.738;2023-05-07T14:41:24;4.40;;;3.58;;
51244;SDS011;37840;47.562;18.738;2023-05-07T14:43:50;3.92;;;3.15;;
51244;SDS011;37840;47.562;18.738;2023-05-07T14:46:17;4.43;;;2.70;;
51244;SDS011;37840;47.562;18.738;2023-05-07T14:48:44;2.75;;;2.42;;
51244;SDS011;37840;47.562;18.738;2023-05-07T14:51:12;4.45;;;4.05;;
51244;SDS011;37840;47.562;18.738;2023-05-07T14:53:40;2.70;;;2.40;;
51244;SDS011;37840;47.562;18.738;2023-05-07T14:56:07;2.35;;;1.95;;
51244;SDS011;37840;47.562;18.738;2023-05-07T14:58:33;2.70;;;2.40;;
51244;SDS011;37840;47.562;18.738;2023-05-07T15:01:00;4.30;;;1.75;;
51244;SDS011;37840;47.562;18.738;2023-05-07T15:03:26;2.22;;;1.90;;